Terminal Aerodrome Forecast
Issued by NWS

Home | Current Version | Previous Version | Text Only | Print | Product List | Glossary On
Versions: 1 2 3 4 5 6 7 8 9 10 11 12 13 14 15 16 17 18 19 20 21 22 23 24 25 26 27 28 29 30 31 32 33
000
FTUS43 KDLH 170803 AAC
TAFHIB
TAF AMD
KHIB 170803Z 1708/1806 32003KT 6SM BR SKC
     FM171000 00000KT 1/2SM FZFG BKN001
     FM171400 00000KT 3SM BR SCT005
     FM171800 22004KT P6SM SKC
     FM180000 19003KT P6SM SKC=

USA.gov is the U.S. government's official web portal to all federal, state and local government web resources and services.